createdAt,value
2023-05-21T00:02:00.980Z,15.8
2023-05-21T00:07:01.016Z,15.9
2023-05-21T00:09:01.120Z,15.8
2023-05-21T00:11:00.953Z,15.8
2023-05-21T00:13:00.954Z,15.7
2023-05-21T00:14:00.956Z,15.8
2023-05-21T00:16:00.995Z,15.7
2023-05-21T00:18:01.187Z,15.8
2023-05-21T00:20:00.946Z,15.8
2023-05-21T00:22:00.995Z,15.6
2023-05-21T00:23:00.950Z,15.7
2023-05-21T00:24:00.940Z,15.6
2023-05-21T00:28:00.921Z,15.7
2023-05-21T00:29:00.943Z,15.5
2023-05-21T00:31:00.953Z,15.6
2023-05-21T00:35:00.961Z,15.4
2023-05-21T00:36:00.955Z,15.5
2023-05-21T00:39:00.934Z,15.5
2023-05-21T00:42:00.950Z,15.6
2023-05-21T00:44:00.919Z,15.4
2023-05-21T00:45:01.028Z,15.5
2023-05-21T00:47:00.948Z,15.3
2023-05-21T00:49:00.969Z,15.4
2023-05-21T00:51:01.012Z,15.2
2023-05-21T00:53:00.938Z,15.4
2023-05-21T00:54:00.935Z,15.3
2023-05-21T00:57:00.968Z,15.4
2023-05-21T01:00:01.024Z,15.5
2023-05-21T01:02:00.994Z,15.4
2023-05-21T01:03:01.061Z,15.3
2023-05-21T01:05:00.981Z,15.3
2023-05-21T01:08:00.931Z,15.4
2023-05-21T01:11:00.978Z,15.3
2023-05-21T01:13:00.993Z,15.2
2023-05-21T01:15:01.121Z,15.4
2023-05-21T01:19:00.966Z,15.2
2023-05-21T01:20:00.960Z,15.3
2023-05-21T01:24:00.983Z,15.2
2023-05-21T01:26:00.932Z,15.3
2023-05-21T01:28:00.951Z,15.2
2023-05-21T01:29:01.072Z,15.3
2023-05-21T01:31:00.964Z,15.2
2023-05-21T01:33:00.996Z,15.2
2023-05-21T01:37:00.955Z,15.3
2023-05-21T01:38:00.981Z,15.2
2023-05-21T01:40:00.932Z,15.2
2023-05-21T01:41:00.976Z,15.3
2023-05-21T01:43:01.021Z,15.2
2023-05-21T01:45:01.150Z,15.1
2023-05-21T01:48:01.021Z,15.2
2023-05-21T01:50:00.963Z,15
2023-05-21T01:52:00.949Z,15.1
2023-05-21T01:54:00.946Z,15
2023-05-21T01:55:00.942Z,15.1
2023-05-21T01:57:00.980Z,15
2023-05-21T02:00:01.071Z,15.1
2023-05-21T02:02:01.036Z,15.2
2023-05-21T02:03:01.079Z,15.1
2023-05-21T02:05:00.958Z,15.2
2023-05-21T02:09:00.991Z,15.1
2023-05-21T02:11:01.023Z,15.1
2023-05-21T02:13:01.042Z,15.1
2023-05-21T02:15:01.199Z,15.3
2023-05-21T02:18:00.980Z,15.3
2023-05-21T02:19:01.029Z,15.2
2023-05-21T02:23:00.975Z,15
2023-05-21T02:25:00.996Z,15
2023-05-21T02:27:00.936Z,15
2023-05-21T02:29:00.952Z,15.1
2023-05-21T02:31:00.964Z,14.9
2023-05-21T02:32:00.981Z,15.2
2023-05-21T02:33:01.064Z,15
2023-05-21T02:35:00.949Z,15.1
2023-05-21T02:40:00.930Z,15.1
2023-05-21T02:41:00.949Z,14.9
2023-05-21T02:43:01.057Z,15
2023-05-21T02:46:01.010Z,15
2023-05-21T02:49:00.953Z,14.9
2023-05-21T02:51:01.064Z,14.8
2023-05-21T02:53:01.130Z,14.9
2023-05-21T02:55:01.001Z,14.9
2023-05-21T02:57:01.337Z,14.9
2023-05-21T02:59:01.061Z,15
2023-05-21T03:03:01.193Z,14.9
2023-05-21T03:05:01.015Z,14.8
2023-05-21T03:06:01.093Z,14.9
2023-05-21T03:08:00.972Z,14.9
2023-05-21T03:10:00.937Z,15.1
2023-05-21T03:11:00.991Z,15
2023-05-21T03:12:01.033Z,14.9
2023-05-21T03:13:01.037Z,15
2023-05-21T03:16:00.933Z,15.1
2023-05-21T03:17:00.981Z,15
2023-05-21T03:19:00.954Z,14.9
2023-05-21T03:21:01.017Z,15
2023-05-21T03:23:00.939Z,14.9
2023-05-21T03:24:00.992Z,15
2023-05-21T03:26:00.968Z,15.1
2023-05-21T03:28:00.953Z,15
2023-05-21T03:31:00.953Z,15.2
2023-05-21T03:32:01.050Z,15.1
2023-05-21T03:33:01.038Z,15.2
2023-05-21T03:38:00.960Z,15.3
2023-05-21T03:39:01.226Z,15.2
2023-05-21T03:41:00.960Z,15.3
2023-05-21T03:42:01.009Z,15.2
2023-05-21T03:44:00.929Z,15.3
2023-05-21T03:47:01.028Z,15.4
2023-05-21T03:50:00.930Z,15.4
2023-05-21T03:51:01.005Z,15.5
2023-05-21T03:54:00.982Z,15.5
2023-05-21T04:01:00.978Z,15.6
2023-05-21T04:03:01.162Z,15.8
2023-05-21T04:10:01.028Z,15.9
2023-05-21T04:12:01.016Z,15.8
2023-05-21T04:14:00.929Z,15.7
2023-05-21T04:16:01.005Z,15.8
2023-05-21T04:17:00.949Z,15.9
2023-05-21T04:19:01.025Z,15.8
2023-05-21T04:20:00.977Z,15.9
2023-05-21T04:22:00.967Z,15.8
2023-05-21T04:28:01.004Z,15.7
2023-05-21T04:29:00.949Z,15.8
2023-05-21T04:31:00.952Z,15.7
2023-05-21T04:33:01.042Z,15.8
2023-05-21T04:36:00.968Z,15.6
2023-05-21T04:38:02.956Z,15.6
2023-05-21T04:39:01.092Z,15.8
2023-05-21T04:41:00.974Z,15.7
2023-05-21T04:42:01.039Z,15.6
2023-05-21T04:44:00.961Z,15.7
2023-05-21T04:45:01.178Z,15.6
2023-05-21T04:48:01.072Z,15.8
2023-05-21T04:49:01.143Z,15.6
2023-05-21T04:51:01.165Z,15.6
2023-05-21T04:53:01.038Z,15.7
2023-05-21T04:56:00.942Z,15.8
2023-05-21T04:58:01.063Z,15.9
2023-05-21T04:59:01.624Z,15.8
2023-05-21T05:02:00.979Z,15.9
2023-05-21T05:04:01.020Z,16
2023-05-21T05:07:01.274Z,16.2
2023-05-21T05:09:01.167Z,16.2
2023-05-21T05:12:00.981Z,16.3
2023-05-21T05:14:01.036Z,16.4
2023-05-21T05:15:01.330Z,16.6
2023-05-21T05:17:01.212Z,16.5
2023-05-21T05:19:01.086Z,16.6
2023-05-21T05:22:01.003Z,16.6
2023-05-21T05:23:01.092Z,16.5
2023-05-21T05:25:01.029Z,16.9
2023-05-21T05:27:01.036Z,16.8
2023-05-21T05:30:01.042Z,17
2023-05-21T05:33:01.104Z,17.1
2023-05-21T05:35:02.333Z,17.2
2023-05-21T05:37:01.055Z,17.5
2023-05-21T05:40:01.036Z,18.1
2023-05-21T05:41:01.061Z,18.4
2023-05-21T05:43:01.116Z,18.5
2023-05-21T05:46:01.103Z,18.6
2023-05-21T05:48:01.059Z,18.8
2023-05-21T05:49:01.082Z,18.9
2023-05-21T05:51:01.078Z,19.1
2023-05-21T05:52:01.153Z,19.2
2023-05-21T05:54:01.076Z,19.3
2023-05-21T05:55:01.084Z,19.4
2023-05-21T05:57:01.055Z,19.7
2023-05-21T05:59:01.194Z,19.9
2023-05-21T06:02:01.065Z,20.1
2023-05-21T06:04:00.942Z,20.2
2023-05-21T06:06:01.131Z,20.3
2023-05-21T06:07:01.057Z,20.5
2023-05-21T06:11:01.081Z,20.8
2023-05-21T06:13:01.063Z,20.9
2023-05-21T06:16:01.040Z,20.9
2023-05-21T06:17:01.049Z,20.8
2023-05-21T06:20:01.065Z,21.1
2023-05-21T06:21:01.091Z,21.2
2023-05-21T06:24:00.939Z,21.5
2023-05-21T06:26:01.072Z,21.6
2023-05-21T06:27:01.069Z,21.5
2023-05-21T06:28:01.139Z,21.6
2023-05-21T06:29:01.086Z,21.7
2023-05-21T06:31:01.019Z,21.6
2023-05-21T06:35:01.097Z,21.5
2023-05-21T06:39:01.029Z,21.3
2023-05-21T06:45:01.166Z,21.2
2023-05-21T06:47:01.395Z,21
2023-05-21T06:49:01.233Z,20.7
2023-05-21T06:51:01.074Z,20.8
2023-05-21T06:53:01.029Z,20.7
2023-05-21T06:55:01.191Z,20.6
2023-05-21T06:56:01.177Z,20.7
2023-05-21T06:58:01.176Z,20.6
2023-05-21T07:02:03.097Z,20.7
2023-05-21T07:04:01.079Z,20.5
2023-05-21T07:05:01.053Z,20.9
2023-05-21T07:07:01.041Z,20.8
2023-05-21T07:09:01.035Z,20.6
2023-05-21T07:10:01.190Z,20.7
2023-05-21T07:12:00.991Z,20.6
2023-05-21T07:13:01.058Z,20.7
2023-05-21T07:15:01.064Z,20.6
2023-05-21T07:16:01.219Z,20.7
2023-05-21T07:19:01.121Z,20.9
2023-05-21T07:21:01.081Z,20.8
2023-05-21T07:23:00.992Z,20.8
2023-05-21T07:25:01.078Z,20.9
2023-05-21T07:27:04.610Z,21.1
2023-05-21T07:31:01.262Z,21.3
2023-05-21T07:33:01.276Z,21.5
2023-05-21T07:35:01.274Z,21.5
2023-05-21T07:37:01.120Z,21.9
2023-05-21T07:39:01.032Z,22
2023-05-21T07:41:01.096Z,22.1
2023-05-21T07:44:00.976Z,22.3
2023-05-21T07:48:00.982Z,22.4
2023-05-21T07:50:00.970Z,22.5
2023-05-21T07:53:01.342Z,22.6
2023-05-21T07:55:01.050Z,22.8
2023-05-21T07:57:01.289Z,22.8
2023-05-21T08:05:01.109Z,23
2023-05-21T08:07:01.044Z,23.1
2023-05-21T08:09:01.029Z,23.1
2023-05-21T08:11:01.059Z,23.2
2023-05-21T08:13:01.099Z,23.2
2023-05-21T08:15:01.288Z,23.5
2023-05-21T08:17:01.042Z,23.6
2023-05-21T08:19:01.087Z,23.7
2023-05-21T08:22:01.067Z,23.8
2023-05-21T08:24:01.014Z,23.6
2023-05-21T08:28:01.165Z,23.7
2023-05-21T08:33:01.063Z,23.6
2023-05-21T08:35:01.050Z,23.8
2023-05-21T08:37:01.066Z,23.9
2023-05-21T08:40:01.247Z,24.2
2023-05-21T08:45:01.067Z,24.3
2023-05-21T08:46:01.265Z,24.2
2023-05-21T08:48:01.201Z,24.2
2023-05-21T08:51:01.108Z,24.3
2023-05-21T08:54:00.949Z,24.2
2023-05-21T08:59:01.021Z,24.1
2023-05-21T09:00:01.150Z,24
2023-05-21T09:02:00.978Z,24.2
2023-05-21T09:03:01.056Z,24
2023-05-21T09:05:01.090Z,24.2
2023-05-21T09:07:01.052Z,24.2
2023-05-21T09:09:01.080Z,24
2023-05-21T09:13:01.015Z,24.3
2023-05-21T09:15:01.096Z,24.4
2023-05-21T09:17:01.269Z,24.1
2023-05-21T09:20:01.001Z,24.3
2023-05-21T09:23:01.049Z,24.5
2023-05-21T09:25:01.036Z,24.3
2023-05-21T09:27:01.064Z,24.3
2023-05-21T09:28:01.147Z,24.4
2023-05-21T09:31:01.053Z,24.3
2023-05-21T09:32:01.063Z,24.4
2023-05-21T09:34:01.132Z,24.5
2023-05-21T09:36:00.972Z,24.7
2023-05-21T09:38:00.977Z,24.8
2023-05-21T09:39:01.137Z,25
2023-05-21T09:42:00.947Z,25
2023-05-21T09:43:01.041Z,25.2
2023-05-21T09:45:01.134Z,25.2
2023-05-21T09:47:01.056Z,25.4
2023-05-21T09:49:01.070Z,25.4
2023-05-21T09:52:00.974Z,25.6
2023-05-21T09:53:01.154Z,25.7
2023-05-21T09:56:00.948Z,25.8
2023-05-21T09:57:01.186Z,25.6
2023-05-21T10:02:01.089Z,26
2023-05-21T10:03:01.198Z,25.7
2023-05-21T10:05:01.137Z,25.6
2023-05-21T10:06:01.162Z,25.8
2023-05-21T10:07:01.161Z,25.9
2023-05-21T10:09:02.527Z,25.9
2023-05-21T10:11:01.081Z,26.1
2023-05-21T10:14:00.977Z,26.2
2023-05-21T10:16:01.028Z,26.1
2023-05-21T10:18:01.127Z,25.9
2023-05-21T10:20:01.068Z,25.8
2023-05-21T10:22:01.008Z,25.5
2023-05-21T10:24:00.997Z,25.4
2023-05-21T10:26:00.982Z,25.3
2023-05-21T10:31:01.113Z,25.4
2023-05-21T10:33:01.348Z,25.3
2023-05-21T10:35:01.790Z,24.9
2023-05-21T10:38:01.016Z,25.2
2023-05-21T10:41:01.093Z,25.7
2023-05-21T10:43:01.077Z,25.5
2023-05-21T10:46:01.023Z,25.9
2023-05-21T10:48:00.973Z,25.7
2023-05-21T10:51:01.223Z,25.9
2023-05-21T10:53:01.149Z,25.7
2023-05-21T10:56:01.006Z,25.9
2023-05-21T10:57:01.071Z,25.7
2023-05-21T11:01:01.713Z,26
2023-05-21T11:05:01.094Z,25.8
2023-05-21T11:09:01.101Z,25.9
2023-05-21T11:11:01.196Z,26
2023-05-21T11:14:01.003Z,26.3
2023-05-21T11:16:00.993Z,26.5
2023-05-21T11:17:01.096Z,26.3
2023-05-21T11:19:01.092Z,26.1
2023-05-21T11:21:01.049Z,26.2
2023-05-21T11:22:01.068Z,26.1
2023-05-21T11:25:01.147Z,26.2
2023-05-21T11:27:01.049Z,26.3
2023-05-21T11:29:01.078Z,26
2023-05-21T11:31:01.211Z,25.9
2023-05-21T11:33:01.217Z,26
2023-05-21T11:36:01.003Z,25.9
2023-05-21T11:37:01.153Z,26
2023-05-21T11:39:01.077Z,26.3
2023-05-21T11:41:01.048Z,26.2
2023-05-21T11:42:04.007Z,26
2023-05-21T11:43:01.084Z,26.1
2023-05-21T11:47:01.199Z,26.1
2023-05-21T11:49:01.264Z,26.2
2023-05-21T11:52:00.955Z,26.2
2023-05-21T11:53:01.201Z,26.3
2023-05-21T11:59:01.055Z,26
2023-05-21T12:01:01.024Z,26.2
2023-05-21T12:03:01.098Z,26.3
2023-05-21T12:05:01.033Z,26.4
2023-05-21T12:08:00.965Z,26.3
2023-05-21T12:09:01.197Z,26.4
2023-05-21T12:12:00.941Z,26.5
2023-05-21T12:13:01.155Z,26.7
2023-05-21T12:17:01.112Z,26.9
2023-05-21T12:19:01.295Z,27.1
2023-05-21T12:21:01.055Z,27.1
2023-05-21T12:24:00.917Z,26.8
2023-05-21T12:26:01.027Z,26.7
2023-05-21T12:27:01.182Z,26.6
2023-05-21T12:30:01.204Z,26.8
2023-05-21T12:31:01.213Z,27
2023-05-21T12:33:01.275Z,27.2
2023-05-21T12:36:01.020Z,27.2
2023-05-21T12:37:01.093Z,27.1
2023-05-21T12:40:00.944Z,26.9
2023-05-21T12:41:01.080Z,26.8
2023-05-21T12:43:01.084Z,26.6
2023-05-21T12:46:00.973Z,26.5
2023-05-21T12:49:01.147Z,26.6
2023-05-21T12:52:01.008Z,26.7
2023-05-21T12:54:01.024Z,26.6
2023-05-21T12:55:01.116Z,26.5
2023-05-21T12:59:01.201Z,26.5
2023-05-21T13:01:03.065Z,26.4
2023-05-21T13:06:01.236Z,26.2
2023-05-21T13:09:01.226Z,26.3
2023-05-21T13:11:01.334Z,26.4
2023-05-21T13:15:01.047Z,26.5
2023-05-21T13:17:01.125Z,26.7
2023-05-21T13:20:00.959Z,26.6
2023-05-21T13:21:01.056Z,26.5
2023-05-21T13:22:01.104Z,26.6
2023-05-21T13:23:02.927Z,26.5
2023-05-21T13:25:01.303Z,26.3
2023-05-21T13:28:00.965Z,26.3
2023-05-21T13:31:01.071Z,26.2
2023-05-21T13:33:01.215Z,26.4
2023-05-21T13:36:00.978Z,26.6
2023-05-21T13:37:01.142Z,26.7
2023-05-21T13:39:01.290Z,26.4
2023-05-21T13:41:01.035Z,26.3
2023-05-21T13:43:01.031Z,26.2
2023-05-21T13:45:01.359Z,26.3
2023-05-21T13:47:01.328Z,26.4
2023-05-21T13:49:01.119Z,26.3
2023-05-21T13:51:01.098Z,26.3
2023-05-21T13:53:01.142Z,26.3
2023-05-21T13:57:01.051Z,26.3
2023-05-21T13:59:01.025Z,26.5
2023-05-21T14:00:01.164Z,26.3
2023-05-21T14:03:01.220Z,26.2
2023-05-21T14:06:00.984Z,26
2023-05-21T14:08:00.963Z,25.9
2023-05-21T14:12:01.018Z,26
2023-05-21T14:13:07.667Z,26.1
2023-05-21T14:15:01.172Z,26.2
2023-05-21T14:18:00.964Z,26.4
2023-05-21T14:21:01.014Z,26.3
2023-05-21T14:23:01.042Z,26.2
2023-05-21T14:25:01.091Z,26.1
2023-05-21T14:27:01.086Z,26.2
2023-05-21T14:32:00.968Z,26.3
2023-05-21T14:33:01.069Z,26.2
2023-05-21T14:42:00.996Z,26.4
2023-05-21T14:43:01.024Z,26.5
2023-05-21T14:44:01.037Z,26.4
2023-05-21T14:46:01.031Z,26.3
2023-05-21T14:47:01.031Z,26.2
2023-05-21T14:50:00.976Z,26
2023-05-21T14:51:01.085Z,26.2
2023-05-21T14:54:01.250Z,26.1
2023-05-21T14:56:00.972Z,26.1
2023-05-21T14:57:01.138Z,25.9
2023-05-21T15:02:01.070Z,25.8
2023-05-21T15:03:01.168Z,25.9
2023-05-21T15:05:01.064Z,25.7
2023-05-21T15:08:00.971Z,25.7
2023-05-21T15:10:00.980Z,25.6
2023-05-21T15:11:01.022Z,25.7
2023-05-21T15:12:01.256Z,25.8
2023-05-21T15:14:00.936Z,25.7
2023-05-21T15:15:01.079Z,25.8
2023-05-21T15:17:01.116Z,25.7
2023-05-21T15:19:01.085Z,25.8
2023-05-21T15:20:01.114Z,25.9
2023-05-21T15:21:01.047Z,26
2023-05-21T15:24:00.918Z,26.2
2023-05-21T15:25:01.157Z,26.1
2023-05-21T15:27:01.194Z,26.1
2023-05-21T15:31:01.033Z,26.2
2023-05-21T15:36:01.084Z,26.1
2023-05-21T15:37:01.083Z,26
2023-05-21T15:39:01.107Z,26
2023-05-21T15:41:01.167Z,25.8
2023-05-21T15:43:01.330Z,25.6
2023-05-21T15:45:01.307Z,25.5
2023-05-21T15:49:01.021Z,25.3
2023-05-21T15:51:01.083Z,25.4
2023-05-21T15:53:01.037Z,25.3
2023-05-21T15:54:01.045Z,25.2
2023-05-21T15:55:01.080Z,25.1
2023-05-21T15:58:02.163Z,25.1
2023-05-21T16:01:01.071Z,25
2023-05-21T16:03:01.138Z,25.1
2023-05-21T16:05:01.136Z,25
2023-05-21T16:08:00.979Z,25.1
2023-05-21T16:11:01.082Z,25.2
2023-05-21T16:14:00.972Z,25.3
2023-05-21T16:17:01.090Z,25.2
2023-05-21T16:19:01.289Z,25.1
2023-05-21T16:21:01.065Z,25.1
2023-05-21T16:23:01.081Z,25
2023-05-21T16:27:01.193Z,25.1
2023-05-21T16:32:01.030Z,25
2023-05-21T16:36:00.976Z,24.9
2023-05-21T16:37:01.238Z,25
2023-05-21T16:46:01.105Z,24.8
2023-05-21T16:48:01.030Z,24.7
2023-05-21T16:50:01.217Z,24.8
2023-05-21T16:51:01.223Z,24.7
2023-05-21T16:53:01.158Z,24.7
2023-05-21T16:55:01.089Z,24.6
2023-05-21T16:57:01.073Z,24.5
2023-05-21T16:58:01.124Z,24.4
2023-05-21T16:59:01.093Z,24.5
2023-05-21T17:01:01.021Z,24.3
2023-05-21T17:04:01.237Z,24.3
2023-05-21T17:06:01.005Z,24.4
2023-05-21T17:15:01.109Z,24.3
2023-05-21T17:19:01.180Z,24.2
2023-05-21T17:21:01.041Z,24.2
2023-05-21T17:24:00.983Z,24
2023-05-21T17:27:01.051Z,23.9
2023-05-21T17:28:01.047Z,23.8
2023-05-21T17:29:01.269Z,23.7
2023-05-21T17:31:01.163Z,23.8
2023-05-21T17:33:01.189Z,23.6
2023-05-21T17:34:01.162Z,23.5
2023-05-21T17:39:01.071Z,23.3
2023-05-21T17:43:01.331Z,23.1
2023-05-21T17:45:01.403Z,23.1
2023-05-21T17:47:01.371Z,22.9
2023-05-21T17:53:01.227Z,22.8
2023-05-21T17:56:00.945Z,22.5
2023-05-21T17:57:01.163Z,22.6
2023-05-21T18:00:01.085Z,22.6
2023-05-21T18:01:01.106Z,22.3
2023-05-21T18:03:01.097Z,22.3
2023-05-21T18:05:01.087Z,22.2
2023-05-21T18:07:01.067Z,22.3
2023-05-21T18:09:01.077Z,22.2
2023-05-21T18:11:01.019Z,22.1
2023-05-21T18:13:01.051Z,22
2023-05-21T18:16:00.974Z,21.8
2023-05-21T18:17:01.347Z,21.9
2023-05-21T18:19:01.099Z,21.9
2023-05-21T18:22:01.219Z,21.7
2023-05-21T18:25:01.041Z,21.6
2023-05-21T18:26:01.202Z,21.7
2023-05-21T18:35:01.099Z,21.5
2023-05-21T18:38:00.969Z,21.6
2023-05-21T18:41:01.005Z,21.5
2023-05-21T18:45:01.224Z,21.4
2023-05-21T18:51:01.039Z,21.3
2023-05-21T18:54:01.021Z,21.2
2023-05-21T18:56:01.036Z,21.3
2023-05-21T18:57:01.031Z,21.2
2023-05-21T19:00:01.384Z,21.1
2023-05-21T19:06:00.995Z,20.9
2023-05-21T19:07:01.051Z,21.1
2023-05-21T19:11:01.103Z,20.8
2023-05-21T19:12:01.159Z,20.9
2023-05-21T19:13:01.187Z,20.8
2023-05-21T19:15:01.322Z,20.7
2023-05-21T19:17:01.108Z,20.7
2023-05-21T19:18:01.190Z,20.6
2023-05-21T19:20:01.053Z,20.4
2023-05-21T19:21:01.104Z,20.5
2023-05-21T19:26:01.017Z,20
2023-05-21T19:27:01.279Z,20.1
2023-05-21T19:29:01.151Z,20
2023-05-21T19:31:01.046Z,19.9
2023-05-21T19:33:01.101Z,19.8
2023-05-21T19:35:01.080Z,19.9
2023-05-21T19:37:01.017Z,19.7
2023-05-21T19:39:01.074Z,19.5
2023-05-21T19:45:01.114Z,19.4
2023-05-21T19:46:01.148Z,19.2
2023-05-21T19:48:01.001Z,19.3
2023-05-21T19:49:01.013Z,19.2
2023-05-21T19:51:01.030Z,19.4
2023-05-21T19:53:01.044Z,19.3
2023-05-21T19:55:01.041Z,19.3
2023-05-21T19:56:01.111Z,19.4
2023-05-21T19:58:01.134Z,19.5
2023-05-21T20:00:01.244Z,19.6
2023-05-21T20:03:01.246Z,19.6
2023-05-21T20:06:01.018Z,19.7
2023-05-21T20:08:00.953Z,19.8
2023-05-21T20:09:00.961Z,19.6
2023-05-21T20:11:00.951Z,20
2023-05-21T20:12:01.046Z,19.9
2023-05-21T20:14:00.982Z,19.8
2023-05-21T20:16:00.998Z,20
2023-05-21T20:17:01.058Z,19.9
2023-05-21T20:19:00.982Z,20.1
2023-05-21T20:21:01.124Z,19.9
2023-05-21T20:23:00.952Z,19.9
2023-05-21T20:24:01.009Z,19.7
2023-05-21T20:25:01.008Z,20.1
2023-05-21T20:31:00.966Z,19.9
2023-05-21T20:32:00.993Z,19.7
2023-05-21T20:33:01.037Z,20
2023-05-21T20:36:00.928Z,19.7
2023-05-21T20:37:00.953Z,19.8
2023-05-21T20:40:00.949Z,19.8
2023-05-21T20:41:01.122Z,19.7
2023-05-21T20:42:01.136Z,19.9
2023-05-21T20:46:00.978Z,19.8
2023-05-21T20:47:01.000Z,19.5
2023-05-21T20:48:01.029Z,19.6
2023-05-21T20:51:01.040Z,19.7
2023-05-21T20:53:01.013Z,19.7
2023-05-21T20:56:00.926Z,19.6
2023-05-21T20:57:01.015Z,19.4
2023-05-21T20:59:00.977Z,19.3
2023-05-21T21:00:01.007Z,19.4
2023-05-21T21:02:01.006Z,19.4
2023-05-21T21:03:01.133Z,19.2
2023-05-21T21:05:00.976Z,19.1
2023-05-21T21:07:00.967Z,19.4
2023-05-21T21:09:01.237Z,19.2
2023-05-21T21:11:01.025Z,19.1
2023-05-21T21:14:00.966Z,18.9
2023-05-21T21:15:01.176Z,19
2023-05-21T21:17:00.999Z,19.1
2023-05-21T21:20:01.012Z,18.9
2023-05-21T21:21:01.126Z,19.1
2023-05-21T21:23:01.015Z,18.7
2023-05-21T21:24:01.104Z,18.8
2023-05-21T21:26:00.953Z,18.8
2023-05-21T21:27:01.037Z,18.6
2023-05-21T21:29:00.953Z,18.7
2023-05-21T21:31:00.970Z,18.6
2023-05-21T21:32:01.013Z,18.8
2023-05-21T21:33:01.178Z,18.7
2023-05-21T21:35:00.975Z,18.5
2023-05-21T21:39:01.049Z,18.3
2023-05-21T21:42:00.990Z,18.5
2023-05-21T21:44:00.963Z,18.3
2023-05-21T21:46:01.011Z,18.4
2023-05-21T21:47:00.986Z,18.5
2023-05-21T21:48:01.011Z,18.4
2023-05-21T21:49:01.016Z,18.6
2023-05-21T21:52:00.999Z,18.4
2023-05-21T21:54:00.991Z,18.4
2023-05-21T21:55:01.028Z,18.3
2023-05-21T21:57:01.017Z,18.3
2023-05-21T21:59:00.983Z,18
2023-05-21T22:01:01.396Z,18.2
2023-05-21T22:03:01.106Z,18
2023-05-21T22:06:01.059Z,18.1
2023-05-21T22:10:00.965Z,18
2023-05-21T22:11:01.015Z,17.9
2023-05-21T22:13:00.979Z,17.8
2023-05-21T22:14:00.977Z,17.7
2023-05-21T22:15:01.163Z,17.9
2023-05-21T22:23:00.979Z,17.6
2023-05-21T22:24:00.993Z,17.7
2023-05-21T22:25:01.011Z,17.9
2023-05-21T22:29:01.026Z,17.7
2023-05-21T22:30:01.193Z,18
2023-05-21T22:33:01.020Z,17.9
2023-05-21T22:37:01.089Z,18
2023-05-21T22:39:00.953Z,18
2023-05-21T22:41:00.932Z,18
2023-05-21T22:42:01.155Z,17.9
2023-05-21T22:45:00.972Z,17.9
2023-05-21T22:47:01.207Z,17.9
2023-05-21T22:49:00.972Z,17.8
2023-05-21T22:51:00.991Z,17.8
2023-05-21T22:53:01.020Z,18
2023-05-21T22:56:00.990Z,17.7
2023-05-21T22:58:00.914Z,17.6
2023-05-21T22:59:00.933Z,17.7
2023-05-21T23:00:01.187Z,17.8
2023-05-21T23:02:01.010Z,17.6
2023-05-21T23:03:00.947Z,17.5
2023-05-21T23:07:00.947Z,17.4
2023-05-21T23:11:00.958Z,17.4
2023-05-21T23:12:00.955Z,17.3
2023-05-21T23:17:01.005Z,17.1
2023-05-21T23:20:00.928Z,17
2023-05-21T23:21:00.993Z,17.1
2023-05-21T23:23:01.002Z,17
2023-05-21T23:25:01.017Z,17.1
2023-05-21T23:28:00.926Z,17.2
2023-05-21T23:29:00.934Z,17
2023-05-21T23:30:01.148Z,16.9
2023-05-21T23:32:01.255Z,16.9
2023-05-21T23:33:00.990Z,16.8
2023-05-21T23:35:00.951Z,17
2023-05-21T23:36:01.007Z,16.8
2023-05-21T23:38:01.000Z,16.7
2023-05-21T23:39:00.977Z,16.9
2023-05-21T23:41:00.968Z,16.8
2023-05-21T23:42:01.078Z,16.7
2023-05-21T23:46:00.995Z,16.7
2023-05-21T23:49:00.974Z,16.8
2023-05-21T23:52:00.963Z,16.9
2023-05-21T23:54:00.948Z,16.7
2023-05-21T23:55:00.937Z,16.8
2023-05-21T23:57:01.183Z,16.7
2023-05-21T23:59:00.988Z,16.7
